Airport View

Enter AWOS ICAO identifier for current METAR.

ex. KFNL

KJKL 101553Z AUTO VRB04KT 10SM CLR 28/20 A3013 RMK AO2 SLP186 T02780200

10 Aug 2020 16:24

Frequency: 118.375

Phone: 606-666-2794

Other Area AWOS: KCPF - KSJS - KPBX - KSYM

TAF KJKL 101137Z 1012/1112 00000KT P6SM BKN100 FM101700 VRB03KT P6SM FEW060 SCT100 FM110000 VRB03KT P6SM SCT250 FM111100 00000KT P6SM BKN100